Menu Close Menu
Station Historical Data
Daily Summary for May 21, 2017 Units:  English    Metric   Both
« Previous Day
Next Day »
Daily Weekly Monthly Yearly Custom
  High: Low: Average:
Temperature: 79.4 °F 66.3 °F 71.2 °F
Dew Point: 68.9 °F 64.2 °F 66.6 °F
Humidity: 95% 66% 86%
Wind Speed: 1.0mph 0.0mph 0mph
Wind Gust: 5.0mph - -
Wind- - WSW
Pressure: 30.14 in 30.02 in -
Precipitation: 0.56 in    
Historical Graphs
 
 
Tabular Data for May 21, 2017
Time Temperature Dew Point Pressure Wind Wind Speed Wind Gust Humidity Rainfall Rate (Hourly) solar Conditions
00:00 67.9 °F 65.5 °F 30.09 in Calm     92% 0.00 in WeatherDisplay:10.37 W/m2 RA
00:10 67.9 °F 65.5 °F 30.11 in Calm   1.0 mph 92% 0.01 in WeatherDisplay:10.37 W/m2 SCT
00:20 67.9 °F 65.5 °F 30.14 in Calm   2.0 mph 92% 0.11 in WeatherDisplay:10.37 W/m2 RA
00:30 67.9 °F 65.5 °F 30.12 in Calm   2.0 mph 92% 0.01 in WeatherDisplay:10.37 W/m2 RA
00:40 67.9 °F 65.8 °F 30.14 in Calm   1.0 mph 93% 0.04 in WeatherDisplay:10.37 W/m2 SCT
00:50 67.9 °F 65.8 °F 30.14 in Calm   2.0 mph 93% 0.04 in WeatherDisplay:10.37 W/m2 RA
01:00 67.6 °F 65.5 °F 30.12 in Calm   3.0 mph 93% 0.05 in WeatherDisplay:10.37 W/m2 RA
01:10 67.5 °F 65.4 °F 30.12 in Calm   1.0 mph 93% 0.07 in WeatherDisplay:10.37 W/m2 RA
01:20 67.1 °F 64.7 °F 30.11 in Calm   1.0 mph 92% 0.05 in WeatherDisplay:10.37 W/m2 RA
01:30 67.0 °F 64.9 °F 30.11 in Calm   1.0 mph 93% 0.10 in WeatherDisplay:10.37 W/m2 RA
01:40 66.8 °F 64.7 °F 30.11 in Calm   1.0 mph 93% 0.04 in WeatherDisplay:10.37 W/m2 RA
01:50 66.7 °F 64.6 °F 30.10 in Calm     93% 0.02 in WeatherDisplay:10.37 W/m2 RA
02:00 66.6 °F 64.5 °F 30.09 in Calm     93% 0.00 in WeatherDisplay:10.37 W/m2 SCT
02:10 66.5 °F 64.4 °F 30.09 in Calm   3.0 mph 93% 0.01 in WeatherDisplay:10.37 W/m2 SCT
02:20 66.4 °F 64.3 °F 30.09 in Calm     93% 0.00 in WeatherDisplay:10.37 W/m2 SCT
02:30 66.4 °F 64.3 °F 30.08 in Calm     93% 0.00 in WeatherDisplay:10.37 W/m2 SCT
02:40 66.4 °F 64.3 °F 30.07 in Calm     93% 0.00 in WeatherDisplay:10.37 W/m2 SCT
02:50 66.3 °F 64.2 °F 30.07 in Calm     93% 0.00 in WeatherDisplay:10.37 W/m2 SCT
03:00 66.3 °F 64.2 °F 30.07 in Calm     93% 0.00 in WeatherDisplay:10.37 W/m2 SCT
03:10 66.4 °F 64.3 °F 30.06 in Calm     93% 0.00 in WeatherDisplay:10.37 W/m2 SCT
03:20 66.4 °F 64.6 °F 30.06 in Calm     94% 0.00 in WeatherDisplay:10.37 W/m2 SCT
03:30 67.2 °F 65.7 °F 30.06 in Calm     95% 0.00 in WeatherDisplay:10.37 W/m2 SCT
03:50 67.2 °F 65.7 °F 30.05 in Calm     95% 0.00 in WeatherDisplay:10.37 W/m2 SCT
04:00 67.2 °F 65.7 °F 30.05 in Calm     95% 0.00 in WeatherDisplay:10.37 W/m2 SCT
04:10 67.2 °F 65.7 °F 30.06 in Calm     95% 0.00 in WeatherDisplay:10.37 W/m2 SCT
04:20 67.2 °F 65.7 °F 30.06 in Calm     95% 0.00 in WeatherDisplay:10.37 W/m2 SCT
04:30 67.2 °F 65.7 °F 30.06 in Calm     95% 0.00 in WeatherDisplay:10.37 W/m2 SCT
04:40 67.2 °F 65.7 °F 30.06 in Calm     95% 0.00 in WeatherDisplay:10.37 W/m2 SCT
04:50 67.2 °F 65.7 °F 30.05 in Calm     95% 0.00 in WeatherDisplay:10.37 W/m2 SCT
05:00 67.2 °F 65.7 °F 30.06 in Calm     95% 0.00 in WeatherDisplay:10.37 W/m2 SCT
05:10 67.2 °F 65.7 °F 30.05 in Calm     95% 0.00 in WeatherDisplay:10.37 W/m2 SCT
05:20 67.2 °F 65.7 °F 30.05 in Calm     95% 0.00 in WeatherDisplay:10.37 W/m2 SCT
05:30 67.2 °F 65.7 °F 30.06 in Calm     95% 0.00 in WeatherDisplay:10.37 W/m2 SCT
05:40 67.2 °F 65.7 °F 30.07 in Calm     95% 0.00 in WeatherDisplay:10.37 W/m2 SCT
05:50 67.2 °F 65.7 °F 30.06 in Calm     95% 0.00 in WeatherDisplay:10.37 W/m2 SCT
06:00 67.2 °F 65.7 °F 30.06 in Calm     95% 0.00 in WeatherDisplay:10.37 W/m2 SCT
06:10 67.2 °F 65.7 °F 30.06 in Calm     95% 0.00 in WeatherDisplay:10.37 W/m2 SCT
06:20 67.2 °F 65.7 °F 30.06 in Calm     95% 0.00 in WeatherDisplay:10.37 W/m2 SCT
06:30 67.2 °F 65.7 °F 30.06 in Calm     95% 0.00 in WeatherDisplay:10.37 W/m2 SCT
06:40 67.2 °F 65.7 °F 30.07 in Calm     95% 0.00 in WeatherDisplay:10.37 W/m2 SCT
06:50 67.2 °F 65.7 °F 30.07 in Calm     95% 0.00 in WeatherDisplay:10.37 W/m2 SCT
07:00 67.2 °F 65.7 °F 30.07 in Calm     95% 0.00 in WeatherDisplay:10.37 W/m2 SCT
07:10 67.2 °F 65.7 °F 30.06 in Calm     95% 0.00 in WeatherDisplay:10.37 W/m2 SCT
07:20 67.2 °F 65.7 °F 30.07 in Calm     95% 0.00 in WeatherDisplay:10.37 W/m2 SCT
07:30 67.2 °F 65.7 °F 30.08 in Calm     95% 0.00 in WeatherDisplay:10.37 W/m2 SCT
07:40 67.2 °F 65.7 °F 30.08 in Calm     95% 0.00 in WeatherDisplay:10.37 W/m2 SCT
07:50 67.2 °F 65.7 °F 30.08 in Calm     95% 0.00 in WeatherDisplay:10.37 W/m2 SCT
08:00 67.2 °F 65.7 °F 30.08 in Calm     95% 0.00 in WeatherDisplay:10.37 W/m2 SCT
08:10 67.2 °F 65.7 °F 30.08 in Calm     95% 0.00 in WeatherDisplay:10.37 W/m2 SCT
08:20 67.2 °F 65.7 °F 30.08 in Calm     95% 0.00 in WeatherDisplay:10.37 W/m2 SCT
08:30 67.2 °F 65.7 °F 30.08 in Calm     95% 0.00 in WeatherDisplay:10.37 W/m2 SCT
08:40 67.2 °F 65.7 °F 30.09 in Calm     95% 0.00 in WeatherDisplay:10.37 W/m2 SCT
08:50 67.2 °F 65.7 °F 30.09 in Calm     95% 0.00 in WeatherDisplay:10.37 W/m2 SCT
09:00 67.2 °F 65.7 °F 30.09 in Calm     95% 0.00 in WeatherDisplay:10.37 W/m2 SCT
09:10 67.2 °F 65.7 °F 30.10 in Calm     95% 0.00 in WeatherDisplay:10.37 W/m2 SCT
09:20 67.2 °F 65.7 °F 30.09 in Calm     95% 0.00 in WeatherDisplay:10.37 W/m2 SCT
09:30 67.2 °F 65.7 °F 30.09 in Calm     95% 0.00 in WeatherDisplay:10.37 W/m2 SCT
09:40 67.2 °F 65.7 °F 30.09 in Calm     95% 0.00 in WeatherDisplay:10.37 W/m2 SCT
09:50 67.2 °F 65.7 °F 30.09 in Calm     95% 0.00 in WeatherDisplay:10.37 W/m2 SCT
10:00 66.9 °F 65.1 °F 30.08 in Calm   1.0 mph 94% 0.00 in WeatherDisplay:10.37 W/m2 SCT
10:10 67.4 °F 65.6 °F 30.09 in Calm   1.0 mph 94% 0.00 in WeatherDisplay:10.37 W/m2 SCT
10:20 67.6 °F 65.8 °F 30.09 in Calm   1.0 mph 94% 0.00 in WeatherDisplay:10.37 W/m2 SCT
10:30 67.8 °F 66.0 °F 30.09 in Calm     94% 0.00 in WeatherDisplay:10.37 W/m2 SCT
10:40 67.7 °F 65.9 °F 30.10 in Calm     94% 0.00 in WeatherDisplay:10.37 W/m2 SCT
10:50 67.8 °F 66.0 °F 30.10 in Calm     94% 0.00 in WeatherDisplay:10.37 W/m2 SCT
11:00 67.8 °F 66.0 °F 30.11 in Calm   1.0 mph 94% 0.00 in WeatherDisplay:10.37 W/m2 SCT
11:20 68.6 °F 66.8 °F 30.10 in Calm     94% 0.00 in WeatherDisplay:10.37 W/m2 SCT
11:30 68.5 °F 66.4 °F 30.10 in Calm   1.0 mph 93% 0.00 in WeatherDisplay:10.37 W/m2 SCT
11:40 69.1 °F 67.3 °F 30.10 in Calm   1.0 mph 94% 0.00 in WeatherDisplay:10.37 W/m2 SCT
11:50 69.8 °F 67.7 °F 30.11 in Calm   1.0 mph 93% 0.00 in WeatherDisplay:10.37 W/m2 SCT
12:00 70.5 °F 68.1 °F 30.11 in Calm   1.0 mph 92% 0.00 in WeatherDisplay:10.37 W/m2 SCT
12:10 70.8 °F 67.7 °F 30.12 in Calm   1.0 mph 90% 0.00 in WeatherDisplay:10.37 W/m2 SCT
12:20 71.3 °F 67.9 °F 30.11 in Calm   3.0 mph 89% 0.00 in WeatherDisplay:10.37 W/m2 SCT
12:30 72.1 °F 68.0 °F 30.12 in Calm   2.0 mph 87% 0.00 in WeatherDisplay:10.37 W/m2 SCT
12:40 72.8 °F 68.4 °F 30.11 in Calm   2.0 mph 86% 0.00 in WeatherDisplay:10.37 W/m2 SCT
12:50 72.8 °F 68.0 °F 30.10 in Calm   2.0 mph 85% 0.00 in WeatherDisplay:10.37 W/m2 SCT
13:00 72.8 °F 68.3 °F 30.10 in Calm   1.0 mph 86% 0.00 in WeatherDisplay:10.37 W/m2 SCT
13:10 74.4 °F 68.5 °F 30.10 in Calm   2.0 mph 82% 0.00 in WeatherDisplay:10.37 W/m2 SCT
13:20 74.9 °F 68.3 °F 30.09 in Calm   2.0 mph 80% 0.00 in WeatherDisplay:10.37 W/m2 SCT
13:30 75.9 °F 68.9 °F 30.09 in NNW 1.0 mph 2.0 mph 79% 0.00 in WeatherDisplay:10.37 W/m2 SCT
13:40 76.1 °F 67.6 °F 30.09 in Calm   2.0 mph 75% 0.00 in WeatherDisplay:10.37 W/m2 SCT
13:50 76.5 °F 67.6 °F 30.08 in Calm   2.0 mph 74% 0.00 in WeatherDisplay:10.37 W/m2 SCT
14:00 76.7 °F 67.4 °F 30.08 in Calm   2.0 mph 73% 0.00 in WeatherDisplay:10.37 W/m2 SCT
14:10 76.9 °F 67.6 °F 30.07 in Calm   2.0 mph 73% 0.00 in WeatherDisplay:10.37 W/m2 SCT
14:20 77.1 °F 66.5 °F 30.07 in SW 1.0 mph 3.0 mph 70% 0.00 in WeatherDisplay:10.37 W/m2 SCT
14:30 77.3 °F 67.6 °F 30.08 in Calm   1.0 mph 72% 0.00 in WeatherDisplay:10.37 W/m2 SCT
14:40 77.5 °F 67.8 °F 30.07 in Calm   1.0 mph 72% 0.00 in WeatherDisplay:10.37 W/m2 SCT
14:50 77.6 °F 68.3 °F 30.07 in Calm   2.0 mph 73% 0.00 in WeatherDisplay:10.37 W/m2 SCT
15:00 77.6 °F 67.9 °F 30.07 in Calm   2.0 mph 72% 0.00 in WeatherDisplay:10.37 W/m2 SCT
15:10 77.8 °F 67.6 °F 30.07 in Calm   2.0 mph 71% 0.00 in WeatherDisplay:10.37 W/m2 SCT
15:20 78.1 °F 67.1 °F 30.06 in Calm   5.0 mph 69% 0.00 in WeatherDisplay:10.37 W/m2 SCT
15:30 78.3 °F 67.7 °F 30.06 in Calm   3.0 mph 70% 0.00 in WeatherDisplay:10.37 W/m2 SCT
15:40 78.9 °F 67.9 °F 30.06 in Calm   2.0 mph 69% 0.00 in WeatherDisplay:10.37 W/m2 SCT
15:50 78.9 °F 67.4 °F 30.06 in Calm   1.0 mph 68% 0.00 in WeatherDisplay:10.37 W/m2 SCT
16:00 78.6 °F 66.7 °F 30.06 in Calm   1.0 mph 67% 0.00 in WeatherDisplay:10.37 W/m2 SCT
16:10 78.7 °F 68.1 °F 30.06 in Calm   1.0 mph 70% 0.00 in WeatherDisplay:10.37 W/m2 SCT
16:20 78.4 °F 67.4 °F 30.06 in Calm   2.0 mph 69% 0.00 in WeatherDisplay:10.37 W/m2 SCT
16:30 78.1 °F 67.9 °F 30.05 in Calm     71% 0.00 in WeatherDisplay:10.37 W/m2 SCT
16:40 78.3 °F 67.7 °F 30.05 in Calm   1.0 mph 70% 0.00 in WeatherDisplay:10.37 W/m2 SCT
16:50 78.4 °F 68.6 °F 30.05 in Calm   1.0 mph 72% 0.00 in WeatherDisplay:10.37 W/m2 SCT
17:00 79.4 °F 67.0 °F 30.05 in SSE 1.0 mph 5.0 mph 66% 0.00 in WeatherDisplay:10.37 W/m2 SCT
17:10 79.4 °F 67.9 °F 30.04 in Calm   2.0 mph 68% 0.00 in WeatherDisplay:10.37 W/m2 SCT
17:20 78.7 °F 67.7 °F 30.04 in Calm   1.0 mph 69% 0.00 in WeatherDisplay:10.37 W/m2 SCT
17:30 77.9 °F 68.1 °F 30.04 in Calm   1.0 mph 72% 0.00 in WeatherDisplay:10.37 W/m2 SCT
17:40 78.1 °F 68.3 °F 30.03 in Calm   2.0 mph 72% 0.00 in WeatherDisplay:10.37 W/m2 SCT
17:50 78.5 °F 67.9 °F 30.03 in Calm   1.0 mph 70% 0.00 in WeatherDisplay:10.37 W/m2 SCT
18:00 78.5 °F 67.9 °F 30.02 in Calm   1.0 mph 70% 0.00 in WeatherDisplay:10.37 W/m2 SCT
18:10 78.8 °F 66.9 °F 30.02 in Calm   1.0 mph 67% 0.00 in WeatherDisplay:10.37 W/m2 SCT
18:20 78.6 °F 67.1 °F 30.02 in Calm   2.0 mph 68% 0.00 in WeatherDisplay:10.37 W/m2 SCT
18:30 78.1 °F 67.9 °F 30.02 in Calm     71% 0.00 in WeatherDisplay:10.37 W/m2 SCT
18:40 77.4 °F 68.4 °F 30.02 in Calm     74% 0.00 in WeatherDisplay:10.37 W/m2 SCT
18:50 76.7 °F 68.2 °F 30.03 in Calm     75% 0.00 in WeatherDisplay:10.37 W/m2 SCT
19:00 76.2 °F 68.1 °F 30.04 in Calm     76% 0.00 in WeatherDisplay:10.37 W/m2 SCT
19:10 75.8 °F 68.5 °F 30.05 in Calm     78% 0.00 in WeatherDisplay:10.37 W/m2 SCT
19:20 75.6 °F 68.6 °F 30.05 in Calm     79% 0.00 in WeatherDisplay:10.37 W/m2 SCT
19:30 75.5 °F 68.2 °F 30.06 in Calm     78% 0.00 in WeatherDisplay:10.37 W/m2 SCT
19:40 75.4 °F 68.8 °F 30.06 in Calm     80% 0.00 in WeatherDisplay:10.37 W/m2 SCT
19:50 75.2 °F 68.6 °F 30.06 in Calm     80% 0.00 in WeatherDisplay:10.37 W/m2 SCT
20:00 74.8 °F 68.6 °F 30.06 in Calm     81% 0.00 in WeatherDisplay:10.37 W/m2 SCT
20:10 74.4 °F 68.2 °F 30.06 in Calm     81% 0.00 in WeatherDisplay:10.37 W/m2 SCT
20:20 74.0 °F 67.8 °F 30.07 in Calm     81% 0.00 in WeatherDisplay:10.37 W/m2 SCT
20:30 73.7 °F 67.9 °F 30.07 in Calm     82% 0.00 in WeatherDisplay:10.37 W/m2 SCT
20:40 73.3 °F 67.5 °F 30.07 in Calm     82% 0.00 in WeatherDisplay:10.37 W/m2 SCT
20:50 73.1 °F 67.6 °F 30.07 in Calm     83% 0.00 in WeatherDisplay:10.37 W/m2 SCT
21:00 72.8 °F 67.3 °F 30.07 in Calm     83% 0.00 in WeatherDisplay:10.37 W/m2 SCT
21:10 72.4 °F 67.3 °F 30.07 in Calm     84% 0.00 in WeatherDisplay:10.37 W/m2 SCT
21:20 72.1 °F 67.0 °F 30.07 in Calm     84% 0.00 in WeatherDisplay:10.37 W/m2 SCT
21:30 71.8 °F 67.0 °F 30.07 in Calm     85% 0.00 in WeatherDisplay:10.37 W/m2 SCT
21:40 71.6 °F 66.8 °F 30.07 in Calm     85% 0.00 in WeatherDisplay:10.37 W/m2 SCT
21:50 71.4 °F 67.0 °F 30.07 in Calm     86% 0.00 in WeatherDisplay:10.37 W/m2 SCT
22:00 71.3 °F 66.9 °F 30.08 in Calm     86% 0.00 in WeatherDisplay:10.37 W/m2 SCT
22:10 71.1 °F 66.7 °F 30.08 in Calm     86% 0.00 in WeatherDisplay:10.37 W/m2 SCT
22:20 71.1 °F 66.7 °F 30.09 in Calm     86% 0.00 in WeatherDisplay:10.37 W/m2 SCT
22:30 71.0 °F 66.9 °F 30.09 in Calm     87% 0.00 in WeatherDisplay:10.37 W/m2 SCT
22:40 70.9 °F 66.8 °F 30.09 in Calm     87% 0.00 in WeatherDisplay:10.37 W/m2 SCT
22:50 70.9 °F 66.8 °F 30.09 in Calm     87% 0.00 in WeatherDisplay:10.37 W/m2 SCT
23:00 70.9 °F 66.8 °F 30.09 in Calm     87% 0.00 in WeatherDisplay:10.37 W/m2 SCT
23:10 70.9 °F 66.8 °F 30.09 in Calm     87% 0.00 in WeatherDisplay:10.37 W/m2 SCT
23:20 70.8 °F 67.0 °F 30.08 in Calm     88% 0.00 in WeatherDisplay:10.37 W/m2 SCT
23:30 70.6 °F 66.9 °F 30.09 in Calm     88% 0.00 in WeatherDisplay:10.37 W/m2 SCT
23:40 70.5 °F 66.8 °F 30.08 in Calm     88% 0.00 in WeatherDisplay:10.37 W/m2 SCT
23:50 70.5 °F 66.8 °F 30.08 in Calm     88% 0.00 in WeatherDisplay:10.37 W/m2 SCT
Piedmont Bend
Compliments of Weather Underground - 4 mb